sensor_id;sensor_type;location;lat;lon;timestamp;P1;durP1;ratioP1;P2;durP2;ratioP2
45344;SDS011;31078;48.304;11.896;2023-02-28T00:01:06;12.88;;;4.75;;
45344;SDS011;31078;48.304;11.896;2023-02-28T00:03:33;16.25;;;4.78;;
45344;SDS011;31078;48.304;11.896;2023-02-28T00:06:00;13.50;;;5.00;;
45344;SDS011;31078;48.304;11.896;2023-02-28T00:08:27;12.35;;;4.53;;
45344;SDS011;31078;48.304;11.896;2023-02-28T00:10:55;18.05;;;5.30;;
45344;SDS011;31078;48.304;11.896;2023-02-28T00:13:22;17.05;;;5.22;;
45344;SDS011;31078;48.304;11.896;2023-02-28T00:15:58;12.60;;;4.35;;
45344;SDS011;31078;48.304;11.896;2023-02-28T00:18:25;15.23;;;5.18;;
45344;SDS011;31078;48.304;11.896;2023-02-28T00:20:51;12.05;;;4.40;;
45344;SDS011;31078;48.304;11.896;2023-02-28T00:23:18;15.20;;;5.13;;
45344;SDS011;31078;48.304;11.896;2023-02-28T00:25:44;14.48;;;4.68;;
45344;SDS011;31078;48.304;11.896;2023-02-28T00:28:12;14.30;;;4.57;;
45344;SDS011;31078;48.304;11.896;2023-02-28T00:30:39;13.70;;;4.75;;
45344;SDS011;31078;48.304;11.896;2023-02-28T00:33:05;12.50;;;4.85;;
45344;SDS011;31078;48.304;11.896;2023-02-28T00:35:32;12.85;;;4.93;;
45344;SDS011;31078;48.304;11.896;2023-02-28T00:37:58;14.50;;;4.85;;
45344;SDS011;31078;48.304;11.896;2023-02-28T00:40:25;19.35;;;5.22;;
45344;SDS011;31078;48.304;11.896;2023-02-28T00:42:51;15.70;;;4.53;;
45344;SDS011;31078;48.304;11.896;2023-02-28T00:45:19;14.73;;;4.75;;
45344;SDS011;31078;48.304;11.896;2023-02-28T00:47:45;11.40;;;4.00;;
45344;SDS011;31078;48.304;11.896;2023-02-28T00:50:14;12.93;;;4.47;;
45344;SDS011;31078;48.304;11.896;2023-02-28T00:52:41;10.70;;;4.20;;
45344;SDS011;31078;48.304;11.896;2023-02-28T00:55:09;12.93;;;4.20;;
45344;SDS011;31078;48.304;11.896;2023-02-28T00:57:35;12.23;;;4.63;;
45344;SDS011;31078;48.304;11.896;2023-02-28T01:00:03;16.38;;;4.80;;
45344;SDS011;31078;48.304;11.896;2023-02-28T01:02:32;14.50;;;4.60;;
45344;SDS011;31078;48.304;11.896;2023-02-28T01:04:59;16.25;;;5.22;;
45344;SDS011;31078;48.304;11.896;2023-02-28T01:07:25;14.57;;;4.80;;
45344;SDS011;31078;48.304;11.896;2023-02-28T01:09:52;13.90;;;4.82;;
45344;SDS011;31078;48.304;11.896;2023-02-28T01:12:18;14.35;;;5.00;;
45344;SDS011;31078;48.304;11.896;2023-02-28T01:14:44;12.25;;;4.70;;
45344;SDS011;31078;48.304;11.896;2023-02-28T01:17:11;17.65;;;5.15;;
45344;SDS011;31078;48.304;11.896;2023-02-28T01:19:40;15.25;;;5.30;;
45344;SDS011;31078;48.304;11.896;2023-02-28T01:22:06;13.90;;;4.68;;
45344;SDS011;31078;48.304;11.896;2023-02-28T01:24:33;16.35;;;5.22;;
45344;SDS011;31078;48.304;11.896;2023-02-28T01:26:59;12.48;;;4.97;;
45344;SDS011;31078;48.304;11.896;2023-02-28T01:29:26;14.77;;;5.28;;
45344;SDS011;31078;48.304;11.896;2023-02-28T01:31:52;14.85;;;5.18;;
45344;SDS011;31078;48.304;11.896;2023-02-28T01:34:19;19.90;;;5.95;;
45344;SDS011;31078;48.304;11.896;2023-02-28T01:36:47;15.70;;;4.55;;
45344;SDS011;31078;48.304;11.896;2023-02-28T01:39:13;15.23;;;5.55;;
45344;SDS011;31078;48.304;11.896;2023-02-28T01:41:40;12.85;;;4.45;;
45344;SDS011;31078;48.304;11.896;2023-02-28T01:44:07;9.75;;;4.50;;
45344;SDS011;31078;48.304;11.896;2023-02-28T01:46:55;12.65;;;4.70;;
45344;SDS011;31078;48.304;11.896;2023-02-28T01:49:21;15.68;;;5.57;;
45344;SDS011;31078;48.304;11.896;2023-02-28T01:51:48;10.52;;;4.47;;
45344;SDS011;31078;48.304;11.896;2023-02-28T01:54:17;19.10;;;5.78;;
45344;SDS011;31078;48.304;11.896;2023-02-28T01:56:47;14.93;;;5.13;;
45344;SDS011;31078;48.304;11.896;2023-02-28T01:59:20;13.82;;;5.03;;
45344;SDS011;31078;48.304;11.896;2023-02-28T02:04:20;22.23;;;6.25;;
45344;SDS011;31078;48.304;11.896;2023-02-28T02:06:49;15.85;;;5.00;;
45344;SDS011;31078;48.304;11.896;2023-02-28T02:09:16;14.60;;;5.25;;
45344;SDS011;31078;48.304;11.896;2023-02-28T02:11:43;17.30;;;5.88;;
45344;SDS011;31078;48.304;11.896;2023-02-28T02:14:26;18.13;;;6.55;;
45344;SDS011;31078;48.304;11.896;2023-02-28T02:20:04;16.40;;;5.72;;
45344;SDS011;31078;48.304;11.896;2023-02-28T02:25:58;11.50;;;5.57;;
45344;SDS011;31078;48.304;11.896;2023-02-28T02:28:48;13.60;;;5.40;;
45344;SDS011;31078;48.304;11.896;2023-02-28T02:31:39;20.63;;;6.13;;
45344;SDS011;31078;48.304;11.896;2023-02-28T02:34:32;24.88;;;7.20;;
45344;SDS011;31078;48.304;11.896;2023-02-28T02:37:20;16.00;;;5.40;;
45344;SDS011;31078;48.304;11.896;2023-02-28T02:39:54;18.38;;;6.05;;
45344;SDS011;31078;48.304;11.896;2023-02-28T02:42:29;17.98;;;6.20;;
45344;SDS011;31078;48.304;11.896;2023-02-28T02:45:04;14.27;;;5.45;;
45344;SDS011;31078;48.304;11.896;2023-02-28T02:47:34;18.48;;;6.22;;
45344;SDS011;31078;48.304;11.896;2023-02-28T02:50:05;12.07;;;5.55;;
45344;SDS011;31078;48.304;11.896;2023-02-28T02:52:38;22.25;;;6.78;;
45344;SDS011;31078;48.304;11.896;2023-02-28T02:55:09;16.48;;;6.25;;
45344;SDS011;31078;48.304;11.896;2023-02-28T02:57:40;15.70;;;6.28;;
45344;SDS011;31078;48.304;11.896;2023-02-28T03:02:40;15.52;;;5.75;;
45344;SDS011;31078;48.304;11.896;2023-02-28T03:05:12;14.82;;;5.93;;
45344;SDS011;31078;48.304;11.896;2023-02-28T03:07:44;15.40;;;6.25;;
45344;SDS011;31078;48.304;11.896;2023-02-28T03:13:00;17.73;;;6.45;;
45344;SDS011;31078;48.304;11.896;2023-02-28T03:15:38;18.20;;;6.85;;
45344;SDS011;31078;48.304;11.896;2023-02-28T03:18:17;14.77;;;6.28;;
45344;SDS011;31078;48.304;11.896;2023-02-28T03:20:54;17.83;;;6.43;;
45344;SDS011;31078;48.304;11.896;2023-02-28T03:23:28;17.58;;;6.28;;
45344;SDS011;31078;48.304;11.896;2023-02-28T03:26:04;18.52;;;6.68;;
45344;SDS011;31078;48.304;11.896;2023-02-28T03:28:35;17.27;;;6.60;;
45344;SDS011;31078;48.304;11.896;2023-02-28T03:31:12;16.08;;;6.85;;
45344;SDS011;31078;48.304;11.896;2023-02-28T03:33:44;21.52;;;6.95;;
45344;SDS011;31078;48.304;11.896;2023-02-28T03:36:21;15.27;;;6.18;;
45344;SDS011;31078;48.304;11.896;2023-02-28T03:38:51;19.30;;;6.93;;
45344;SDS011;31078;48.304;11.896;2023-02-28T03:41:21;15.95;;;5.97;;
45344;SDS011;31078;48.304;11.896;2023-02-28T03:43:53;19.05;;;7.05;;
45344;SDS011;31078;48.304;11.896;2023-02-28T03:46:23;19.65;;;7.20;;
45344;SDS011;31078;48.304;11.896;2023-02-28T03:48:53;16.50;;;6.93;;
45344;SDS011;31078;48.304;11.896;2023-02-28T03:51:24;19.25;;;6.95;;
45344;SDS011;31078;48.304;11.896;2023-02-28T03:53:53;17.35;;;6.53;;
45344;SDS011;31078;48.304;11.896;2023-02-28T03:56:24;16.67;;;6.97;;
45344;SDS011;31078;48.304;11.896;2023-02-28T03:58:58;17.77;;;7.30;;
45344;SDS011;31078;48.304;11.896;2023-02-28T04:01:30;18.63;;;7.00;;
45344;SDS011;31078;48.304;11.896;2023-02-28T04:03:59;17.83;;;6.93;;
45344;SDS011;31078;48.304;11.896;2023-02-28T04:06:29;14.50;;;6.25;;
45344;SDS011;31078;48.304;11.896;2023-02-28T04:08:57;16.67;;;7.07;;
45344;SDS011;31078;48.304;11.896;2023-02-28T04:11:26;16.75;;;6.65;;
45344;SDS011;31078;48.304;11.896;2023-02-28T04:13:57;17.07;;;7.17;;
45344;SDS011;31078;48.304;11.896;2023-02-28T04:16:23;18.40;;;6.78;;
45344;SDS011;31078;48.304;11.896;2023-02-28T04:18:50;19.85;;;6.93;;
45344;SDS011;31078;48.304;11.896;2023-02-28T04:21:16;16.85;;;7.13;;
45344;SDS011;31078;48.304;11.896;2023-02-28T04:23:47;18.38;;;7.40;;
45344;SDS011;31078;48.304;11.896;2023-02-28T04:26:13;18.35;;;6.78;;
45344;SDS011;31078;48.304;11.896;2023-02-28T04:28:40;16.17;;;7.05;;
45344;SDS011;31078;48.304;11.896;2023-02-28T04:31:06;23.98;;;7.50;;
45344;SDS011;31078;48.304;11.896;2023-02-28T04:33:32;21.73;;;7.60;;
45344;SDS011;31078;48.304;11.896;2023-02-28T04:35:59;18.17;;;7.18;;
45344;SDS011;31078;48.304;11.896;2023-02-28T04:38:27;19.45;;;7.43;;
45344;SDS011;31078;48.304;11.896;2023-02-28T04:40:57;23.45;;;8.35;;
45344;SDS011;31078;48.304;11.896;2023-02-28T04:43:25;18.40;;;6.97;;
45344;SDS011;31078;48.304;11.896;2023-02-28T04:45:52;18.52;;;7.05;;
45344;SDS011;31078;48.304;11.896;2023-02-28T04:48:21;17.20;;;7.25;;
45344;SDS011;31078;48.304;11.896;2023-02-28T04:50:48;20.85;;;7.50;;
45344;SDS011;31078;48.304;11.896;2023-02-28T04:53:14;19.42;;;8.50;;
45344;SDS011;31078;48.304;11.896;2023-02-28T04:55:41;22.05;;;8.05;;
45344;SDS011;31078;48.304;11.896;2023-02-28T04:58:09;17.55;;;6.95;;
45344;SDS011;31078;48.304;11.896;2023-02-28T05:00:35;18.08;;;7.65;;
45344;SDS011;31078;48.304;11.896;2023-02-28T05:03:02;22.08;;;7.82;;
45344;SDS011;31078;48.304;11.896;2023-02-28T05:05:28;17.63;;;7.20;;
45344;SDS011;31078;48.304;11.896;2023-02-28T05:07:55;18.90;;;7.28;;
45344;SDS011;31078;48.304;11.896;2023-02-28T05:10:22;20.38;;;8.15;;
45344;SDS011;31078;48.304;11.896;2023-02-28T05:12:48;17.17;;;7.35;;
45344;SDS011;31078;48.304;11.896;2023-02-28T05:15:17;22.38;;;8.63;;
45344;SDS011;31078;48.304;11.896;2023-02-28T05:17:44;23.63;;;7.90;;
45344;SDS011;31078;48.304;11.896;2023-02-28T05:20:11;20.40;;;7.30;;
45344;SDS011;31078;48.304;11.896;2023-02-28T05:22:38;16.58;;;7.03;;
45344;SDS011;31078;48.304;11.896;2023-02-28T05:25:05;19.80;;;7.88;;
45344;SDS011;31078;48.304;11.896;2023-02-28T05:27:32;19.30;;;7.60;;
45344;SDS011;31078;48.304;11.896;2023-02-28T05:29:59;19.88;;;8.55;;
45344;SDS011;31078;48.304;11.896;2023-02-28T05:32:29;21.17;;;8.85;;
45344;SDS011;31078;48.304;11.896;2023-02-28T05:34:56;21.38;;;8.07;;
45344;SDS011;31078;48.304;11.896;2023-02-28T05:37:22;20.42;;;8.40;;
45344;SDS011;31078;48.304;11.896;2023-02-28T05:39:49;25.48;;;8.18;;
45344;SDS011;31078;48.304;11.896;2023-02-28T05:42:15;20.13;;;8.10;;
45344;SDS011;31078;48.304;11.896;2023-02-28T05:44:42;23.95;;;8.73;;
45344;SDS011;31078;48.304;11.896;2023-02-28T05:47:08;18.13;;;8.02;;
45344;SDS011;31078;48.304;11.896;2023-02-28T05:49:36;21.50;;;8.65;;
45344;SDS011;31078;48.304;11.896;2023-02-28T05:52:03;23.38;;;8.57;;
45344;SDS011;31078;48.304;11.896;2023-02-28T05:54:30;23.25;;;9.07;;
45344;SDS011;31078;48.304;11.896;2023-02-28T05:56:56;21.65;;;8.27;;
45344;SDS011;31078;48.304;11.896;2023-02-28T05:59:23;20.40;;;8.40;;
45344;SDS011;31078;48.304;11.896;2023-02-28T06:01:49;27.42;;;9.38;;
45344;SDS011;31078;48.304;11.896;2023-02-28T06:04:19;27.45;;;9.50;;
45344;SDS011;31078;48.304;11.896;2023-02-28T06:06:47;18.83;;;8.23;;
45344;SDS011;31078;48.304;11.896;2023-02-28T06:09:15;21.17;;;8.98;;
45344;SDS011;31078;48.304;11.896;2023-02-28T06:11:41;23.30;;;8.60;;
45344;SDS011;31078;48.304;11.896;2023-02-28T06:14:12;20.77;;;8.80;;
45344;SDS011;31078;48.304;11.896;2023-02-28T06:16:40;22.25;;;8.45;;
45344;SDS011;31078;48.304;11.896;2023-02-28T06:19:08;23.55;;;8.43;;
45344;SDS011;31078;48.304;11.896;2023-02-28T06:21:35;21.52;;;8.82;;
45344;SDS011;31078;48.304;11.896;2023-02-28T06:24:04;23.80;;;8.80;;
45344;SDS011;31078;48.304;11.896;2023-02-28T06:26:31;21.48;;;8.93;;
45344;SDS011;31078;48.304;11.896;2023-02-28T06:28:57;18.08;;;8.20;;
45344;SDS011;31078;48.304;11.896;2023-02-28T06:31:25;22.67;;;8.98;;
45344;SDS011;31078;48.304;11.896;2023-02-28T06:33:53;20.65;;;9.70;;
45344;SDS011;31078;48.304;11.896;2023-02-28T06:36:21;19.55;;;8.15;;
45344;SDS011;31078;48.304;11.896;2023-02-28T06:38:47;24.10;;;9.30;;
45344;SDS011;31078;48.304;11.896;2023-02-28T06:41:20;21.58;;;9.30;;
45344;SDS011;31078;48.304;11.896;2023-02-28T06:43:47;27.35;;;9.85;;
45344;SDS011;31078;48.304;11.896;2023-02-28T06:46:14;23.67;;;9.25;;
45344;SDS011;31078;48.304;11.896;2023-02-28T06:48:40;19.60;;;8.60;;
45344;SDS011;31078;48.304;11.896;2023-02-28T06:51:09;28.02;;;9.90;;
45344;SDS011;31078;48.304;11.896;2023-02-28T06:53:38;22.95;;;9.05;;
45344;SDS011;31078;48.304;11.896;2023-02-28T06:56:04;22.35;;;9.10;;
45344;SDS011;31078;48.304;11.896;2023-02-28T06:58:33;22.63;;;8.68;;
45344;SDS011;31078;48.304;11.896;2023-02-28T07:01:01;24.58;;;9.05;;
45344;SDS011;31078;48.304;11.896;2023-02-28T07:03:28;24.13;;;8.90;;
45344;SDS011;31078;48.304;11.896;2023-02-28T07:05:54;17.73;;;8.85;;
45344;SDS011;31078;48.304;11.896;2023-02-28T07:08:22;25.50;;;9.07;;
45344;SDS011;31078;48.304;11.896;2023-02-28T07:10:51;19.15;;;8.50;;
45344;SDS011;31078;48.304;11.896;2023-02-28T07:13:18;22.63;;;8.70;;
45344;SDS011;31078;48.304;11.896;2023-02-28T07:15:53;23.83;;;8.70;;
45344;SDS011;31078;48.304;11.896;2023-02-28T07:18:20;22.02;;;8.90;;
45344;SDS011;31078;48.304;11.896;2023-02-28T07:20:47;23.77;;;9.52;;
45344;SDS011;31078;48.304;11.896;2023-02-28T07:23:13;27.90;;;10.35;;
45344;SDS011;31078;48.304;11.896;2023-02-28T07:25:40;24.30;;;8.85;;
45344;SDS011;31078;48.304;11.896;2023-02-28T07:28:06;25.58;;;9.15;;
45344;SDS011;31078;48.304;11.896;2023-02-28T07:30:33;23.73;;;8.93;;
45344;SDS011;31078;48.304;11.896;2023-02-28T07:33:01;24.67;;;9.07;;
45344;SDS011;31078;48.304;11.896;2023-02-28T07:35:28;22.90;;;9.52;;
45344;SDS011;31078;48.304;11.896;2023-02-28T07:37:55;21.67;;;8.90;;
45344;SDS011;31078;48.304;11.896;2023-02-28T07:40:23;21.92;;;8.95;;
45344;SDS011;31078;48.304;11.896;2023-02-28T07:42:49;24.00;;;8.70;;
45344;SDS011;31078;48.304;11.896;2023-02-28T07:45:16;24.88;;;9.80;;
45344;SDS011;31078;48.304;11.896;2023-02-28T07:47:43;20.27;;;9.02;;
45344;SDS011;31078;48.304;11.896;2023-02-28T07:50:12;24.48;;;9.30;;
45344;SDS011;31078;48.304;11.896;2023-02-28T07:52:41;26.38;;;9.50;;
45344;SDS011;31078;48.304;11.896;2023-02-28T07:55:08;20.58;;;9.75;;
45344;SDS011;31078;48.304;11.896;2023-02-28T07:57:36;23.52;;;9.70;;
45344;SDS011;31078;48.304;11.896;2023-02-28T08:00:03;21.70;;;8.73;;
45344;SDS011;31078;48.304;11.896;2023-02-28T08:02:30;20.73;;;8.40;;
45344;SDS011;31078;48.304;11.896;2023-02-28T08:04:56;22.00;;;9.27;;
45344;SDS011;31078;48.304;11.896;2023-02-28T08:07:24;18.80;;;8.68;;
45344;SDS011;31078;48.304;11.896;2023-02-28T08:09:50;23.90;;;8.63;;
45344;SDS011;31078;48.304;11.896;2023-02-28T08:12:17;23.80;;;8.90;;
45344;SDS011;31078;48.304;11.896;2023-02-28T08:14:43;20.70;;;9.52;;
45344;SDS011;31078;48.304;11.896;2023-02-28T08:17:10;25.73;;;9.73;;
45344;SDS011;31078;48.304;11.896;2023-02-28T08:19:37;22.52;;;9.55;;
45344;SDS011;31078;48.304;11.896;2023-02-28T08:22:04;26.48;;;9.48;;
45344;SDS011;31078;48.304;11.896;2023-02-28T08:24:32;21.13;;;8.65;;
45344;SDS011;31078;48.304;11.896;2023-02-28T08:26:58;22.05;;;9.30;;
45344;SDS011;31078;48.304;11.896;2023-02-28T08:29:25;17.08;;;8.40;;
45344;SDS011;31078;48.304;11.896;2023-02-28T08:31:51;18.98;;;8.57;;
45344;SDS011;31078;48.304;11.896;2023-02-28T08:34:18;25.88;;;10.55;;
45344;SDS011;31078;48.304;11.896;2023-02-28T08:36:44;19.48;;;8.80;;
45344;SDS011;31078;48.304;11.896;2023-02-28T08:39:11;22.63;;;9.82;;
45344;SDS011;31078;48.304;11.896;2023-02-28T08:41:39;20.08;;;8.85;;
45344;SDS011;31078;48.304;11.896;2023-02-28T08:44:09;17.25;;;8.48;;
45344;SDS011;31078;48.304;11.896;2023-02-28T08:46:35;19.58;;;9.32;;
45344;SDS011;31078;48.304;11.896;2023-02-28T08:49:02;19.27;;;8.73;;
45344;SDS011;31078;48.304;11.896;2023-02-28T08:51:28;18.00;;;8.57;;
45344;SDS011;31078;48.304;11.896;2023-02-28T08:53:56;17.95;;;8.25;;
45344;SDS011;31078;48.304;11.896;2023-02-28T08:56:25;21.60;;;9.50;;
45344;SDS011;31078;48.304;11.896;2023-02-28T08:58:54;17.17;;;8.18;;
45344;SDS011;31078;48.304;11.896;2023-02-28T09:01:23;20.38;;;9.05;;
45344;SDS011;31078;48.304;11.896;2023-02-28T09:03:52;17.27;;;8.75;;
45344;SDS011;31078;48.304;11.896;2023-02-28T09:06:19;17.33;;;8.40;;
45344;SDS011;31078;48.304;11.896;2023-02-28T09:08:47;19.45;;;9.15;;
45344;SDS011;31078;48.304;11.896;2023-02-28T09:11:14;18.75;;;8.50;;
45344;SDS011;31078;48.304;11.896;2023-02-28T09:13:41;19.05;;;9.15;;
45344;SDS011;31078;48.304;11.896;2023-02-28T09:16:10;21.13;;;9.10;;
45344;SDS011;31078;48.304;11.896;2023-02-28T09:18:38;20.92;;;8.68;;
45344;SDS011;31078;48.304;11.896;2023-02-28T09:21:05;20.20;;;8.98;;
45344;SDS011;31078;48.304;11.896;2023-02-28T09:23:32;19.65;;;9.68;;
45344;SDS011;31078;48.304;11.896;2023-02-28T09:25:58;19.50;;;9.07;;
45344;SDS011;31078;48.304;11.896;2023-02-28T09:28:25;19.02;;;8.70;;
45344;SDS011;31078;48.304;11.896;2023-02-28T09:30:52;21.98;;;8.98;;
45344;SDS011;31078;48.304;11.896;2023-02-28T09:33:22;18.58;;;8.95;;
45344;SDS011;31078;48.304;11.896;2023-02-28T09:35:49;20.42;;;8.65;;
45344;SDS011;31078;48.304;11.896;2023-02-28T09:38:16;18.40;;;9.25;;
45344;SDS011;31078;48.304;11.896;2023-02-28T09:40:46;20.23;;;9.30;;
45344;SDS011;31078;48.304;11.896;2023-02-28T09:43:15;21.60;;;9.18;;
45344;SDS011;31078;48.304;11.896;2023-02-28T09:45:45;21.48;;;9.45;;
45344;SDS011;31078;48.304;11.896;2023-02-28T09:48:16;19.08;;;8.82;;
45344;SDS011;31078;48.304;11.896;2023-02-28T09:50:48;20.10;;;9.15;;
45344;SDS011;31078;48.304;11.896;2023-02-28T09:53:19;21.15;;;9.18;;
45344;SDS011;31078;48.304;11.896;2023-02-28T09:55:48;16.42;;;8.63;;
45344;SDS011;31078;48.304;11.896;2023-02-28T09:58:20;18.83;;;8.40;;
45344;SDS011;31078;48.304;11.896;2023-02-28T10:00:54;18.00;;;8.53;;
45344;SDS011;31078;48.304;11.896;2023-02-28T10:03:27;18.90;;;9.15;;
45344;SDS011;31078;48.304;11.896;2023-02-28T10:06:00;14.82;;;8.38;;
45344;SDS011;31078;48.304;11.896;2023-02-28T10:08:33;16.08;;;8.88;;
45344;SDS011;31078;48.304;11.896;2023-02-28T10:11:07;15.95;;;8.95;;
45344;SDS011;31078;48.304;11.896;2023-02-28T10:13:39;17.98;;;9.15;;
45344;SDS011;31078;48.304;11.896;2023-02-28T10:16:16;21.42;;;9.80;;
45344;SDS011;31078;48.304;11.896;2023-02-28T10:18:47;17.27;;;8.80;;
45344;SDS011;31078;48.304;11.896;2023-02-28T10:21:19;17.00;;;9.02;;
45344;SDS011;31078;48.304;11.896;2023-02-28T10:23:50;15.70;;;9.05;;
45344;SDS011;31078;48.304;11.896;2023-02-28T10:26:22;19.17;;;9.18;;
45344;SDS011;31078;48.304;11.896;2023-02-28T10:28:52;21.38;;;8.45;;
45344;SDS011;31078;48.304;11.896;2023-02-28T10:31:19;14.20;;;8.65;;
45344;SDS011;31078;48.304;11.896;2023-02-28T10:33:46;17.27;;;9.07;;
45344;SDS011;31078;48.304;11.896;2023-02-28T10:36:14;25.42;;;10.18;;
45344;SDS011;31078;48.304;11.896;2023-02-28T10:38:44;24.80;;;9.68;;
45344;SDS011;31078;48.304;11.896;2023-02-28T10:41:12;23.73;;;8.98;;
45344;SDS011;31078;48.304;11.896;2023-02-28T10:43:41;24.23;;;10.10;;
45344;SDS011;31078;48.304;11.896;2023-02-28T10:46:11;22.05;;;9.38;;
45344;SDS011;31078;48.304;11.896;2023-02-28T10:48:57;25.88;;;10.32;;
45344;SDS011;31078;48.304;11.896;2023-02-28T10:51:33;36.28;;;10.52;;
45344;SDS011;31078;48.304;11.896;2023-02-28T10:54:03;31.00;;;10.48;;
45344;SDS011;31078;48.304;11.896;2023-02-28T10:56:30;21.80;;;9.50;;
45344;SDS011;31078;48.304;11.896;2023-02-28T10:58:59;22.85;;;9.10;;
45344;SDS011;31078;48.304;11.896;2023-02-28T11:01:34;24.63;;;9.77;;
45344;SDS011;31078;48.304;11.896;2023-02-28T11:04:03;21.05;;;9.00;;
45344;SDS011;31078;48.304;11.896;2023-02-28T11:06:42;21.23;;;9.50;;
45344;SDS011;31078;48.304;11.896;2023-02-28T11:09:15;23.10;;;9.45;;
45344;SDS011;31078;48.304;11.896;2023-02-28T11:11:48;23.85;;;9.13;;
45344;SDS011;31078;48.304;11.896;2023-02-28T11:14:17;28.38;;;10.68;;
45344;SDS011;31078;48.304;11.896;2023-02-28T11:16:46;23.70;;;10.32;;
45344;SDS011;31078;48.304;11.896;2023-02-28T11:19:17;26.55;;;10.45;;
45344;SDS011;31078;48.304;11.896;2023-02-28T11:21:48;45.42;;;10.90;;
45344;SDS011;31078;48.304;11.896;2023-02-28T11:24:23;37.75;;;10.20;;
45344;SDS011;31078;48.304;11.896;2023-02-28T11:26:52;31.35;;;10.02;;
45344;SDS011;31078;48.304;11.896;2023-02-28T11:29:19;22.75;;;9.82;;
45344;SDS011;31078;48.304;11.896;2023-02-28T11:32:04;19.95;;;9.13;;
45344;SDS011;31078;48.304;11.896;2023-02-28T11:34:36;24.80;;;9.63;;
45344;SDS011;31078;48.304;11.896;2023-02-28T11:37:04;24.48;;;9.95;;
45344;SDS011;31078;48.304;11.896;2023-02-28T11:39:38;25.13;;;10.23;;
45344;SDS011;31078;48.304;11.896;2023-02-28T11:42:07;27.73;;;10.77;;
45344;SDS011;31078;48.304;11.896;2023-02-28T11:44:50;20.95;;;9.57;;
45344;SDS011;31078;48.304;11.896;2023-02-28T11:47:29;23.88;;;10.30;;
45344;SDS011;31078;48.304;11.896;2023-02-28T11:50:05;28.20;;;9.85;;
45344;SDS011;31078;48.304;11.896;2023-02-28T11:52:52;23.48;;;9.98;;
45344;SDS011;31078;48.304;11.896;2023-02-28T11:55:23;19.92;;;9.27;;
45344;SDS011;31078;48.304;11.896;2023-02-28T12:00:59;20.98;;;9.15;;
45344;SDS011;31078;48.304;11.896;2023-02-28T12:03:42;22.52;;;9.10;;
45344;SDS011;31078;48.304;11.896;2023-02-28T12:06:19;22.42;;;9.30;;
45344;SDS011;31078;48.304;11.896;2023-02-28T12:08:53;22.38;;;9.02;;
45344;SDS011;31078;48.304;11.896;2023-02-28T12:11:35;23.33;;;9.68;;
45344;SDS011;31078;48.304;11.896;2023-02-28T12:14:27;23.55;;;10.40;;
45344;SDS011;31078;48.304;11.896;2023-02-28T12:17:12;31.30;;;10.10;;
45344;SDS011;31078;48.304;11.896;2023-02-28T12:19:48;16.95;;;8.45;;
45344;SDS011;31078;48.304;11.896;2023-02-28T12:22:28;25.77;;;9.85;;
45344;SDS011;31078;48.304;11.896;2023-02-28T12:27:49;24.67;;;9.73;;
45344;SDS011;31078;48.304;11.896;2023-02-28T12:30:19;17.40;;;9.43;;
45344;SDS011;31078;48.304;11.896;2023-02-28T12:32:51;20.33;;;9.52;;
45344;SDS011;31078;48.304;11.896;2023-02-28T12:35:21;16.05;;;8.60;;
45344;SDS011;31078;48.304;11.896;2023-02-28T12:37:55;20.10;;;9.52;;
45344;SDS011;31078;48.304;11.896;2023-02-28T12:40:26;18.55;;;9.25;;
45344;SDS011;31078;48.304;11.896;2023-02-28T12:43:02;16.00;;;8.20;;
45344;SDS011;31078;48.304;11.896;2023-02-28T12:45:35;19.47;;;9.77;;
45344;SDS011;31078;48.304;11.896;2023-02-28T12:48:07;20.10;;;9.68;;
45344;SDS011;31078;48.304;11.896;2023-02-28T12:50:38;20.77;;;10.10;;
45344;SDS011;31078;48.304;11.896;2023-02-28T12:53:06;20.20;;;9.80;;
45344;SDS011;31078;48.304;11.896;2023-02-28T12:55:38;20.30;;;9.52;;
45344;SDS011;31078;48.304;11.896;2023-02-28T12:58:13;22.83;;;10.13;;
45344;SDS011;31078;48.304;11.896;2023-02-28T13:00:47;19.25;;;9.35;;
45344;SDS011;31078;48.304;11.896;2023-02-28T13:03:33;17.20;;;9.50;;
45344;SDS011;31078;48.304;11.896;2023-02-28T13:06:17;21.98;;;9.65;;
45344;SDS011;31078;48.304;11.896;2023-02-28T13:11:38;16.75;;;9.10;;
45344;SDS011;31078;48.304;11.896;2023-02-28T13:14:15;17.85;;;9.48;;
45344;SDS011;31078;48.304;11.896;2023-02-28T13:16:56;18.63;;;9.43;;
45344;SDS011;31078;48.304;11.896;2023-02-28T13:19:27;17.45;;;8.88;;
45344;SDS011;31078;48.304;11.896;2023-02-28T13:21:55;17.08;;;9.07;;
45344;SDS011;31078;48.304;11.896;2023-02-28T13:24:37;23.63;;;9.85;;
45344;SDS011;31078;48.304;11.896;2023-02-28T13:30:00;14.32;;;8.55;;
45344;SDS011;31078;48.304;11.896;2023-02-28T13:32:32;17.08;;;9.00;;
45344;SDS011;31078;48.304;11.896;2023-02-28T13:38:16;17.02;;;9.40;;
45344;SDS011;31078;48.304;11.896;2023-02-28T13:44:05;20.15;;;9.07;;
45344;SDS011;31078;48.304;11.896;2023-02-28T13:46:35;16.35;;;9.40;;
45344;SDS011;31078;48.304;11.896;2023-02-28T13:49:19;16.35;;;8.80;;
45344;SDS011;31078;48.304;11.896;2023-02-28T13:51:51;13.90;;;8.57;;
45344;SDS011;31078;48.304;11.896;2023-02-28T13:54:22;19.20;;;9.93;;
45344;SDS011;31078;48.304;11.896;2023-02-28T13:57:00;24.45;;;9.95;;
45344;SDS011;31078;48.304;11.896;2023-02-28T13:59:37;15.80;;;8.75;;
45344;SDS011;31078;48.304;11.896;2023-02-28T14:02:21;17.45;;;8.30;;
45344;SDS011;31078;48.304;11.896;2023-02-28T14:05:00;21.42;;;9.45;;
45344;SDS011;31078;48.304;11.896;2023-02-28T14:07:32;27.23;;;10.13;;
45344;SDS011;31078;48.304;11.896;2023-02-28T14:10:05;13.40;;;8.80;;
45344;SDS011;31078;48.304;11.896;2023-02-28T14:12:53;21.65;;;10.00;;
45344;SDS011;31078;48.304;11.896;2023-02-28T14:15:28;15.32;;;8.88;;
45344;SDS011;31078;48.304;11.896;2023-02-28T14:18:11;24.73;;;10.05;;
45344;SDS011;31078;48.304;11.896;2023-02-28T14:20:42;19.25;;;9.98;;
45344;SDS011;31078;48.304;11.896;2023-02-28T14:23:13;16.98;;;9.73;;
45344;SDS011;31078;48.304;11.896;2023-02-28T14:25:47;18.15;;;9.43;;
45344;SDS011;31078;48.304;11.896;2023-02-28T14:28:30;17.92;;;9.43;;
45344;SDS011;31078;48.304;11.896;2023-02-28T14:31:10;11.85;;;7.70;;
45344;SDS011;31078;48.304;11.896;2023-02-28T14:33:45;19.15;;;9.23;;
45344;SDS011;31078;48.304;11.896;2023-02-28T14:36:24;16.45;;;8.13;;
45344;SDS011;31078;48.304;11.896;2023-02-28T14:38:54;16.05;;;9.48;;
45344;SDS011;31078;48.304;11.896;2023-02-28T14:41:24;15.90;;;9.48;;
45344;SDS011;31078;48.304;11.896;2023-02-28T14:43:56;17.60;;;9.70;;
45344;SDS011;31078;48.304;11.896;2023-02-28T14:46:24;15.73;;;9.10;;
45344;SDS011;31078;48.304;11.896;2023-02-28T14:48:56;13.85;;;8.55;;
45344;SDS011;31078;48.304;11.896;2023-02-28T14:51:22;15.25;;;9.50;;
45344;SDS011;31078;48.304;11.896;2023-02-28T14:53:51;16.83;;;9.20;;
45344;SDS011;31078;48.304;11.896;2023-02-28T14:56:23;18.92;;;9.60;;
45344;SDS011;31078;48.304;11.896;2023-02-28T14:58:52;21.95;;;9.75;;
45344;SDS011;31078;48.304;11.896;2023-02-28T15:01:20;15.25;;;9.23;;
45344;SDS011;31078;48.304;11.896;2023-02-28T15:03:48;18.23;;;9.85;;
45344;SDS011;31078;48.304;11.896;2023-02-28T15:06:26;18.48;;;9.40;;
45344;SDS011;31078;48.304;11.896;2023-02-28T15:09:09;16.65;;;8.63;;
45344;SDS011;31078;48.304;11.896;2023-02-28T15:11:39;17.25;;;9.68;;